Time;durP1;ratioP1;P1;durP2;ratioP2;P2;SDS_P1;SDS_P2;PMS_P1;PMS_P2;Temp;Humidity;BMP_temperature;BMP_pressure;BME280_temperature;BME280_humidity;BME280_pressure;Samples;Min_cycle;Max_cycle;Signal;HPM_P1;HPM_P2
2021/04/03 00:01:52;;;;;;;19.33;5.10;;;;;;;;;;5071144;28;20013;-78
2021/04/03 00:04:18;;;;;;;22.27;4.77;;;;;;;;;;5071064;28;20066;-78
2021/04/03 00:06:43;;;;;;;29.93;5.40;;;;;;;;;;5071143;28;20017;-78
2021/04/03 00:09:08;;;;;;;24.07;5.10;;;;;;;;;;5073383;28;20476;-78
2021/04/03 00:11:33;;;;;;;23.40;5.40;;;;;;;;;;5075118;28;20078;-78
2021/04/03 00:13:59;;;;;;;18.53;4.07;;;;;;;;;;5074836;28;20472;-78
2021/04/03 00:16:24;;;;;;;28.40;4.87;;;;;;;;;;5074430;28;20085;-78
2021/04/03 00:18:49;;;;;;;21.87;4.87;;;;;;;;;;5074911;28;20016;-78
2021/04/03 00:21:14;;;;;;;20.37;4.70;;;;;;;;;;5074604;28;20016;-78
2021/04/03 00:23:40;;;;;;;17.10;4.27;;;;;;;;;;5074431;28;20099;-78
2021/04/03 00:26:05;;;;;;;25.80;5.23;;;;;;;;;;5074655;28;20031;-78
2021/04/03 00:28:30;;;;;;;21.50;4.77;;;;;;;;;;5075773;28;20145;-78
2021/04/03 00:30:55;;;;;;;26.53;5.23;;;;;;;;;;5073957;28;20417;-78
2021/04/03 00:33:20;;;;;;;21.43;4.60;;;;;;;;;;5075734;28;20495;-78
2021/04/03 00:35:46;;;;;;;25.63;4.47;;;;;;;;;;5074314;28;20055;-78
2021/04/03 00:38:12;;;;;;;23.50;4.97;;;;;;;;;;5074366;28;20020;-78
2021/04/03 00:40:37;;;;;;;23.83;4.87;;;;;;;;;;5075555;28;20016;-78
2021/04/03 00:43:03;;;;;;;22.57;4.80;;;;;;;;;;5074093;28;20078;-78
2021/04/03 00:45:29;;;;;;;21.90;5.17;;;;;;;;;;5073964;28;20025;-78
2021/04/03 00:47:54;;;;;;;29.47;4.87;;;;;;;;;;5074266;28;20482;-78
2021/04/03 00:50:24;;;;;;;28.33;5.17;;;;;;;;;;5074049;28;20475;-78
2021/04/03 00:52:50;;;;;;;30.90;5.63;;;;;;;;;;5075431;28;20024;-78
2021/04/03 00:55:15;;;;;;;24.97;4.60;;;;;;;;;;5075369;28;20344;-78
2021/04/03 00:57:41;;;;;;;29.27;7.10;;;;;;;;;;5073899;28;20024;-78
2021/04/03 01:00:07;;;;;;;23.67;5.00;;;;;;;;;;5074028;28;20023;-78
2021/04/03 01:02:33;;;;;;;26.23;5.53;;;;;;;;;;5075072;28;20036;-78
2021/04/03 01:04:59;;;;;;;26.73;4.90;;;;;;;;;;5073980;28;20031;-78
2021/04/03 01:07:25;;;;;;;29.83;5.27;;;;;;;;;;5074599;28;20387;-78
2021/04/03 01:09:50;;;;;;;32.00;4.97;;;;;;;;;;5073769;28;20036;-78
2021/04/03 01:12:33;;;;;;;29.07;5.63;;;;;;;;;;5075042;28;20480;-78
2021/04/03 01:14:59;;;;;;;38.53;5.80;;;;;;;;;;5058493;28;20111;-78
2021/04/03 01:17:29;;;;;;;21.43;4.50;;;;;;;;;;5067783;28;20547;-78
2021/04/03 01:20:09;;;;;;;22.13;4.63;;;;;;;;;;5074141;28;20028;-78
2021/04/03 01:22:43;;;;;;;20.50;4.13;;;;;;;;;;5068289;28;20353;-78
2021/04/03 01:25:12;;;;;;;29.90;5.07;;;;;;;;;;5069448;28;20067;-78
2021/04/03 01:27:45;;;;;;;26.90;5.03;;;;;;;;;;5063838;28;20526;-78
2021/04/03 01:30:18;;;;;;;23.13;4.97;;;;;;;;;;5073510;28;20012;-79
2021/04/03 01:32:49;;;;;;;25.43;4.50;;;;;;;;;;5073248;28;20119;-78
2021/04/03 01:35:17;;;;;;;22.77;5.00;;;;;;;;;;5074455;28;20526;-78
2021/04/03 01:37:51;;;;;;;24.73;5.47;;;;;;;;;;5073323;28;20021;-78
2021/04/03 01:40:18;;;;;;;24.77;4.63;;;;;;;;;;5073178;28;20054;-78
2021/04/03 01:42:45;;;;;;;30.10;4.00;;;;;;;;;;5073172;28;20375;-78
2021/04/03 01:45:11;;;;;;;29.20;4.70;;;;;;;;;;5073063;28;20031;-78
2021/04/03 01:47:39;;;;;;;30.60;4.20;;;;;;;;;;5073268;28;20421;-78
2021/04/03 01:50:04;;;;;;;32.67;4.90;;;;;;;;;;5074322;28;20027;-78
2021/04/03 01:52:31;;;;;;;24.27;4.80;;;;;;;;;;5073052;28;20087;-78
2021/04/03 01:54:58;;;;;;;22.53;4.00;;;;;;;;;;5072859;28;20056;-78
2021/04/03 01:57:24;;;;;;;21.77;3.70;;;;;;;;;;5072469;28;20013;-78
2021/04/03 01:59:49;;;;;;;21.73;3.33;;;;;;;;;;5074144;28;20096;-79
2021/04/03 02:02:15;;;;;;;16.13;3.70;;;;;;;;;;5071326;28;20031;-78
2021/04/03 02:04:42;;;;;;;22.70;3.70;;;;;;;;;;5074006;28;20432;-78
2021/04/03 02:07:07;;;;;;;17.60;3.50;;;;;;;;;;5072633;28;20025;-78
2021/04/03 02:09:33;;;;;;;22.93;3.30;;;;;;;;;;5072717;28;20021;-78
2021/04/03 02:11:58;;;;;;;17.50;2.83;;;;;;;;;;5072334;28;20115;-78
2021/04/03 02:14:23;;;;;;;22.17;4.47;;;;;;;;;;5073958;28;20071;-78
2021/04/03 02:16:50;;;;;;;22.30;3.37;;;;;;;;;;5072621;28;20013;-78
2021/04/03 02:19:18;;;;;;;17.03;2.90;;;;;;;;;;5072450;28;20051;-78
2021/04/03 02:21:43;;;;;;;19.53;2.63;;;;;;;;;;5073762;28;20520;-78
2021/04/03 02:24:10;;;;;;;21.23;2.57;;;;;;;;;;5072372;28;20099;-78
2021/04/03 02:26:36;;;;;;;25.07;3.40;;;;;;;;;;5073496;28;20549;-78
2021/04/03 02:29:03;;;;;;;24.63;2.60;;;;;;;;;;5072087;28;20020;-78
2021/04/03 02:31:29;;;;;;;18.37;2.57;;;;;;;;;;5073294;28;20024;-78
2021/04/03 02:33:54;;;;;;;18.27;2.13;;;;;;;;;;5072238;28;20025;-78
2021/04/03 02:36:20;;;;;;;19.83;2.73;;;;;;;;;;5072051;28;20005;-78
2021/04/03 02:38:48;;;;;;;20.30;3.00;;;;;;;;;;5073429;28;20356;-78
2021/04/03 02:41:15;;;;;;;19.93;2.27;;;;;;;;;;5072014;28;20025;-78
2021/04/03 02:43:45;;;;;;;22.43;3.13;;;;;;;;;;5072167;28;20131;-78
2021/04/03 02:46:15;;;;;;;16.20;2.90;;;;;;;;;;5071879;28;20427;-78
2021/04/03 02:48:43;;;;;;;21.67;2.43;;;;;;;;;;5072018;28;20526;-78
2021/04/03 02:51:09;;;;;;;18.03;2.23;;;;;;;;;;5073062;28;20076;-78
2021/04/03 02:53:35;;;;;;;16.50;2.87;;;;;;;;;;5071511;28;20066;-78
2021/04/03 02:56:00;;;;;;;19.93;2.27;;;;;;;;;;5071789;28;20024;-78
2021/04/03 02:58:29;;;;;;;17.00;2.37;;;;;;;;;;5072963;28;20048;-78
2021/04/03 03:00:55;;;;;;;17.83;2.43;;;;;;;;;;5071745;28;20015;-78
2021/04/03 03:03:22;;;;;;;16.53;1.90;;;;;;;;;;5072919;28;20461;-78
2021/04/03 03:05:48;;;;;;;14.97;1.80;;;;;;;;;;5072992;28;20016;-78
2021/04/03 03:08:14;;;;;;;18.83;2.57;;;;;;;;;;5071714;28;20030;-78
2021/04/03 03:10:40;;;;;;;22.60;2.33;;;;;;;;;;5072987;28;20095;-78
2021/04/03 03:13:07;;;;;;;21.00;2.17;;;;;;;;;;5072916;28;20024;-78
2021/04/03 03:15:32;;;;;;;18.67;2.20;;;;;;;;;;5070918;28;20024;-78
2021/04/03 03:17:57;;;;;;;23.20;2.03;;;;;;;;;;5072756;28;20013;-78
2021/04/03 03:20:23;;;;;;;17.97;2.37;;;;;;;;;;5071414;28;20103;-78
2021/04/03 03:22:48;;;;;;;20.07;2.57;;;;;;;;;;5071569;28;20051;-78
2021/04/03 03:25:13;;;;;;;20.10;2.10;;;;;;;;;;5072774;28;20020;-78
2021/04/03 03:27:40;;;;;;;18.17;1.77;;;;;;;;;;5071492;28;20023;-78
2021/04/03 03:30:06;;;;;;;15.63;2.20;;;;;;;;;;5071503;28;20019;-78
2021/04/03 03:32:31;;;;;;;13.47;2.23;;;;;;;;;;5071120;28;20025;-78
2021/04/03 03:34:57;;;;;;;26.57;2.30;;;;;;;;;;5072580;28;20024;-78
2021/04/03 03:37:23;;;;;;;15.70;2.33;;;;;;;;;;5071490;28;20031;-78
2021/04/03 03:39:49;;;;;;;17.60;2.23;;;;;;;;;;5071241;28;20016;-78
2021/04/03 03:42:14;;;;;;;22.27;2.50;;;;;;;;;;5071498;28;20025;-78
2021/04/03 03:44:40;;;;;;;15.90;2.00;;;;;;;;;;5078596;28;20024;-78
2021/04/03 03:47:05;;;;;;;15.10;1.87;;;;;;;;;;5077982;28;20017;-78
2021/04/03 03:49:30;;;;;;;24.13;2.20;;;;;;;;;;5079063;28;20489;-78
2021/04/03 03:51:55;;;;;;;18.63;2.73;;;;;;;;;;5077878;28;20012;-78
2021/04/03 03:54:20;;;;;;;17.47;2.30;;;;;;;;;;5079102;28;20016;-78
2021/04/03 03:56:46;;;;;;;14.33;2.13;;;;;;;;;;5079084;28;20017;-78
2021/04/03 03:59:11;;;;;;;17.87;2.17;;;;;;;;;;5079213;28;20065;-78
2021/04/03 04:01:36;;;;;;;20.13;2.50;;;;;;;;;;5077734;28;20036;-78
2021/04/03 04:04:01;;;;;;;17.43;2.23;;;;;;;;;;5078050;28;20468;-78
2021/04/03 04:06:26;;;;;;;20.93;2.63;;;;;;;;;;5078844;28;20039;-78
2021/04/03 04:08:52;;;;;;;26.13;2.37;;;;;;;;;;5077428;28;20025;-78
2021/04/03 04:11:17;;;;;;;20.27;2.80;;;;;;;;;;5077725;28;20027;-78
2021/04/03 04:13:42;;;;;;;18.47;2.07;;;;;;;;;;5077452;28;20115;-78
2021/04/03 04:16:07;;;;;;;21.40;2.10;;;;;;;;;;5077646;28;20016;-78
2021/04/03 04:18:33;;;;;;;16.73;2.57;;;;;;;;;;5078819;28;20455;-78
2021/04/03 04:20:58;;;;;;;16.80;2.13;;;;;;;;;;5077623;28;20021;-78
2021/04/03 04:23:24;;;;;;;15.80;2.03;;;;;;;;;;5078974;28;20020;-78
2021/04/03 04:25:49;;;;;;;19.63;2.43;;;;;;;;;;5078760;28;20456;-78
2021/04/03 04:28:14;;;;;;;22.13;3.17;;;;;;;;;;5077567;28;20024;-78
2021/04/03 04:30:39;;;;;;;20.43;2.57;;;;;;;;;;5078903;28;20036;-78
2021/04/03 04:33:04;;;;;;;14.83;1.97;;;;;;;;;;5078554;28;20052;-78
2021/04/03 04:35:30;;;;;;;37.27;6.37;;;;;;;;;;5077287;28;20021;-78
2021/04/03 04:37:55;;;;;;;22.80;3.10;;;;;;;;;;5078718;28;20103;-78
2021/04/03 04:40:20;;;;;;;27.80;2.83;;;;;;;;;;5077450;28;20409;-78
2021/04/03 04:42:47;;;;;;;18.23;2.90;;;;;;;;;;5078537;28;20016;-78
2021/04/03 04:45:12;;;;;;;18.77;2.57;;;;;;;;;;5077471;28;20094;-78
2021/04/03 04:47:38;;;;;;;27.07;2.80;;;;;;;;;;5077536;28;20028;-78
2021/04/03 04:50:04;;;;;;;15.30;2.40;;;;;;;;;;5077324;28;20070;-78
2021/04/03 04:52:29;;;;;;;18.30;2.17;;;;;;;;;;5078727;28;20070;-78
2021/04/03 04:54:55;;;;;;;17.77;2.17;;;;;;;;;;5076573;28;20024;-78
2021/04/03 04:57:20;;;;;;;18.80;2.37;;;;;;;;;;5074100;28;20418;-78
2021/04/03 04:59:45;;;;;;;27.00;2.90;;;;;;;;;;5075249;28;20044;-78
2021/04/03 05:02:10;;;;;;;27.20;2.93;;;;;;;;;;5073954;28;20048;-78
2021/04/03 05:04:35;;;;;;;20.33;2.60;;;;;;;;;;5073806;28;20529;-78
2021/04/03 05:07:01;;;;;;;19.90;2.83;;;;;;;;;;5073915;28;20020;-78
2021/04/03 05:09:26;;;;;;;20.60;2.97;;;;;;;;;;5074067;28;20025;-78
2021/04/03 05:11:51;;;;;;;18.57;2.17;;;;;;;;;;5075137;28;20129;-78
2021/04/03 05:14:16;;;;;;;20.80;2.77;;;;;;;;;;5073760;28;20067;-78
2021/04/03 05:16:41;;;;;;;20.93;2.37;;;;;;;;;;5074075;28;20016;-78
2021/04/03 05:19:06;;;;;;;21.80;2.50;;;;;;;;;;5073647;28;20012;-78
2021/04/03 05:21:32;;;;;;;24.10;2.70;;;;;;;;;;5074046;28;20016;-78
2021/04/03 05:23:57;;;;;;;25.07;3.20;;;;;;;;;;5073606;28;20379;-78
2021/04/03 05:26:22;;;;;;;26.30;2.90;;;;;;;;;;5073244;28;20499;-78
2021/04/03 05:28:47;;;;;;;18.73;2.60;;;;;;;;;;5074683;28;20108;-78
2021/04/03 05:31:13;;;;;;;22.03;2.97;;;;;;;;;;5074663;28;20020;-78
2021/04/03 05:33:38;;;;;;;20.30;3.33;;;;;;;;;;5074883;28;20012;-78
2021/04/03 05:36:03;;;;;;;16.30;2.30;;;;;;;;;;5073307;28;20021;-78
2021/04/03 05:38:28;;;;;;;30.17;4.00;;;;;;;;;;5074728;28;20086;-78
2021/04/03 05:40:54;;;;;;;23.40;2.67;;;;;;;;;;5074684;28;20048;-78
2021/04/03 05:43:19;;;;;;;17.20;2.50;;;;;;;;;;5074571;28;20046;-78
2021/04/03 05:45:45;;;;;;;19.13;2.20;;;;;;;;;;5073253;28;20024;-78
2021/04/03 05:48:11;;;;;;;21.17;2.30;;;;;;;;;;5073063;28;20012;-78
2021/04/03 05:50:36;;;;;;;25.77;2.60;;;;;;;;;;5073032;28;20506;-78
2021/04/03 05:53:02;;;;;;;24.83;2.43;;;;;;;;;;5074436;28;20020;-78
2021/04/03 05:55:27;;;;;;;33.47;3.43;;;;;;;;;;5073106;28;20048;-78
2021/04/03 05:57:52;;;;;;;17.43;2.97;;;;;;;;;;5073071;28;20035;-78
2021/04/03 06:00:18;;;;;;;28.77;3.07;;;;;;;;;;5074199;28;20348;-78
2021/04/03 06:02:43;;;;;;;23.17;2.63;;;;;;;;;;5074349;28;20091;-78
2021/04/03 06:05:09;;;;;;;20.07;2.53;;;;;;;;;;5072788;28;20121;-78
2021/04/03 06:07:34;;;;;;;17.40;2.50;;;;;;;;;;5073648;28;20016;-78
2021/04/03 06:10:00;;;;;;;24.10;2.70;;;;;;;;;;5072351;28;20025;-78
2021/04/03 06:12:44;;;;;;;17.30;2.47;;;;;;;;;;5072524;28;20024;-78
2021/04/03 06:15:11;;;;;;;24.53;2.70;;;;;;;;;;5072461;28;20038;-78
2021/04/03 06:17:36;;;;;;;25.60;3.60;;;;;;;;;;5073985;28;20047;-78
2021/04/03 06:20:01;;;;;;;26.77;3.13;;;;;;;;;;5072966;28;20052;-78
2021/04/03 06:22:39;;;;;;;21.87;2.50;;;;;;;;;;5072357;28;20074;-78
2021/04/03 06:25:04;;;;;;;33.67;3.30;;;;;;;;;;5072716;28;20016;-78
2021/04/03 06:27:29;;;;;;;21.20;2.30;;;;;;;;;;5073546;28;20062;-78
2021/04/03 06:29:56;;;;;;;18.47;2.77;;;;;;;;;;5073734;28;20020;-78
2021/04/03 06:32:30;;;;;;;26.23;2.83;;;;;;;;;;5072284;28;20107;-78
2021/04/03 06:34:56;;;;;;;22.17;2.83;;;;;;;;;;5073232;28;20016;-78
2021/04/03 06:37:31;;;;;;;24.13;3.73;;;;;;;;;;5073450;28;20073;-78
2021/04/03 06:40:04;;;;;;;23.03;2.97;;;;;;;;;;5073271;28;20018;-78
2021/04/03 06:42:55;;;;;;;22.43;2.50;;;;;;;;;;5072130;28;20079;-78
2021/04/03 06:45:20;;;;;;;24.70;2.63;;;;;;;;;;5072138;28;20075;-78
2021/04/03 06:47:46;;;;;;;23.33;2.97;;;;;;;;;;5073434;28;20471;-78
2021/04/03 06:50:13;;;;;;;33.57;3.20;;;;;;;;;;5073165;28;20024;-78
2021/04/03 06:52:38;;;;;;;24.33;3.20;;;;;;;;;;5072000;28;20058;-78
2021/04/03 06:55:04;;;;;;;33.17;3.73;;;;;;;;;;5071737;28;20044;-78
2021/04/03 06:57:30;;;;;;;24.47;3.27;;;;;;;;;;5073269;28;20503;-78
2021/04/03 06:59:56;;;;;;;27.97;3.37;;;;;;;;;;5072836;28;20099;-78
2021/04/03 07:02:22;;;;;;;31.03;4.00;;;;;;;;;;5071716;28;20103;-78
2021/04/03 07:04:47;;;;;;;31.33;2.90;;;;;;;;;;5071879;28;20509;-78
2021/04/03 07:07:13;;;;;;;31.80;4.20;;;;;;;;;;5071690;28;20062;-78
2021/04/03 07:09:38;;;;;;;31.17;3.83;;;;;;;;;;5071737;28;20139;-78
2021/04/03 07:12:03;;;;;;;23.50;3.10;;;;;;;;;;5072651;28;20096;-78
2021/04/03 07:14:30;;;;;;;27.27;4.10;;;;;;;;;;5072916;28;20480;-78
2021/04/03 07:16:56;;;;;;;28.97;2.50;;;;;;;;;;5072691;28;20091;-78
2021/04/03 07:19:22;;;;;;;23.67;3.27;;;;;;;;;;5072513;28;20055;-78
2021/04/03 07:21:47;;;;;;;31.87;4.10;;;;;;;;;;5071213;28;20066;-78
2021/04/03 07:24:14;;;;;;;22.67;3.60;;;;;;;;;;5072769;28;20017;-78
2021/04/03 07:26:42;;;;;;;28.65;3.30;;;;;;;;;;5071959;28;20047;-78
2021/04/03 07:29:07;;;;;;;13.40;2.13;;;;;;;;;;5069301;28;20028;-78
2021/04/03 07:31:36;;;;;;;26.13;2.90;;;;;;;;;;5070399;28;20046;-78
2021/04/03 07:34:01;;;;;;;32.70;3.17;;;;;;;;;;5072298;28;20016;-78
2021/04/03 07:36:30;;;;;;;20.33;2.70;;;;;;;;;;5070961;28;20013;-78
2021/04/03 07:38:56;;;;;;;32.58;2.85;;;;;;;;;;5071224;28;20025;-78
2021/04/03 07:41:21;;;;;;;26.35;3.22;;;;;;;;;;5071009;28;20021;-78
2021/04/03 07:43:48;;;;;;;27.03;3.73;;;;;;;;;;5071015;28;20021;-78
2021/04/03 07:46:19;;;;;;;25.43;3.50;;;;;;;;;;5071119;28;20036;-78
2021/04/03 07:48:45;;;;;;;23.23;3.50;;;;;;;;;;5070297;28;20411;-78
2021/04/03 07:51:10;;;;;;;16.83;2.47;;;;;;;;;;5102627;28;20032;-78
2021/04/03 07:53:40;;;;;;;28.98;3.35;;;;;;;;;;5070192;28;20016;-78
2021/04/03 07:56:06;;;;;;;29.08;3.08;;;;;;;;;;5072503;28;20024;-78
2021/04/03 07:58:32;;;;;;;36.20;3.80;;;;;;;;;;5071634;28;20027;-78
2021/04/03 08:00:59;;;;;;;25.47;2.77;;;;;;;;;;5065525;28;20044;-78
2021/04/03 08:03:26;;;;;;;34.03;3.33;;;;;;;;;;5070348;28;20021;-78
2021/04/03 08:06:02;;;;;;;32.15;4.20;;;;;;;;;;5072116;28;20375;-78
2021/04/03 08:08:28;;;;;;;31.47;4.33;;;;;;;;;;5071988;28;20031;-78
2021/04/03 08:11:11;;;;;;;24.10;3.22;;;;;;;;;;5070553;28;20407;-78
2021/04/03 08:13:39;;;;;;;29.92;3.38;;;;;;;;;;5070263;28;20025;-78
2021/04/03 08:16:05;;;;;;;31.95;4.05;;;;;;;;;;5071769;28;20359;-78
2021/04/03 08:18:30;;;;;;;31.30;3.57;;;;;;;;;;5068334;28;20044;-78
2021/04/03 08:20:55;;;;;;;36.07;3.27;;;;;;;;;;5071691;28;20492;-78
2021/04/03 08:23:40;;;;;;;29.30;4.37;;;;;;;;;;5071898;28;20044;-78
2021/04/03 08:26:06;;;;;;;35.57;4.30;;;;;;;;;;5070379;28;20020;-78
2021/04/03 08:28:31;;;;;;;24.70;3.23;;;;;;;;;;5069287;28;20361;-78
2021/04/03 08:31:00;;;;;;;31.83;3.40;;;;;;;;;;5074114;28;20154;-78
2021/04/03 08:33:30;;;;;;;28.73;3.77;;;;;;;;;;5074119;28;20052;-78
2021/04/03 08:35:55;;;;;;;27.37;5.17;;;;;;;;;;5068095;28;20021;-78
2021/04/03 08:38:24;;;;;;;30.23;4.17;;;;;;;;;;5074339;28;20031;-78
2021/04/03 08:40:51;;;;;;;28.90;3.27;;;;;;;;;;5073794;28;20066;-78
2021/04/03 08:43:21;;;;;;;29.98;3.42;;;;;;;;;;5075196;28;20368;-78
2021/04/03 08:45:46;;;;;;;35.45;4.60;;;;;;;;;;5074003;28;20054;-78
2021/04/03 08:48:12;;;;;;;30.13;3.95;;;;;;;;;;5074096;28;20433;-78
2021/04/03 08:50:38;;;;;;;27.05;3.60;;;;;;;;;;5075536;28;20039;-78
2021/04/03 08:53:04;;;;;;;24.02;2.97;;;;;;;;;;5073350;28;20427;-78
2021/04/03 08:55:30;;;;;;;22.67;2.78;;;;;;;;;;5075475;28;20020;-78
2021/04/03 08:57:56;;;;;;;21.90;2.95;;;;;;;;;;5074214;28;20016;-78
2021/04/03 09:00:21;;;;;;;21.80;3.78;;;;;;;;;;5074544;28;20525;-78
2021/04/03 09:02:47;;;;;;;32.58;4.88;;;;;;;;;;5074211;28;20071;-78
2021/04/03 09:05:13;;;;;;;18.55;3.08;;;;;;;;;;5075117;28;20035;-78
2021/04/03 09:07:38;;;;;;;29.70;4.10;;;;;;;;;;5075158;28;20439;-78
2021/04/03 09:10:05;;;;;;;33.55;3.75;;;;;;;;;;5075037;28;20020;-78
2021/04/03 09:12:30;;;;;;;30.05;4.50;;;;;;;;;;5074569;28;20024;-78
2021/04/03 09:14:56;;;;;;;26.75;3.03;;;;;;;;;;5062488;28;20503;-78
2021/04/03 09:17:23;;;;;;;23.90;2.40;;;;;;;;;;5074290;28;20009;-78
2021/04/03 09:19:49;;;;;;;18.10;3.38;;;;;;;;;;5073693;28;20039;-78
2021/04/03 09:22:15;;;;;;;24.13;3.80;;;;;;;;;;5074603;28;20456;-78
2021/04/03 09:24:41;;;;;;;27.13;3.95;;;;;;;;;;5072761;28;20028;-79
2021/04/03 09:27:13;;;;;;;12.52;1.63;;;;;;;;;;5074655;28;20092;-78
2021/04/03 09:29:39;;;;;;;24.05;3.38;;;;;;;;;;5075314;28;20024;-78
2021/04/03 09:32:05;;;;;;;24.38;3.03;;;;;;;;;;5074689;28;20119;-78
2021/04/03 09:34:32;;;;;;;15.45;2.90;;;;;;;;;;5074563;28;20067;-78
2021/04/03 09:37:09;;;;;;;25.13;3.80;;;;;;;;;;5074670;28;20074;-78
2021/04/03 09:39:41;;;;;;;28.17;4.15;;;;;;;;;;5073175;28;20020;-79
2021/04/03 09:42:10;;;;;;;31.50;3.75;;;;;;;;;;5072338;28;20100;-78
2021/04/03 09:44:35;;;;;;;31.27;4.50;;;;;;;;;;5072268;28;20024;-78
2021/04/03 09:47:00;;;;;;;23.73;3.63;;;;;;;;;;5074136;28;20024;-78
2021/04/03 09:49:25;;;;;;;15.88;2.78;;;;;;;;;;5074270;28;20016;-78
2021/04/03 09:51:50;;;;;;;32.35;4.00;;;;;;;;;;5073170;28;20055;-78
2021/04/03 09:54:16;;;;;;;19.75;3.38;;;;;;;;;;5073051;28;20108;-78
2021/04/03 09:56:41;;;;;;;17.90;3.13;;;;;;;;;;5073960;28;20019;-78
2021/04/03 09:59:06;;;;;;;20.95;3.17;;;;;;;;;;5072890;28;20034;-78
2021/04/03 10:01:31;;;;;;;31.50;4.05;;;;;;;;;;5072703;28;20024;-78
2021/04/03 10:03:56;;;;;;;15.02;2.80;;;;;;;;;;5072792;28;20077;-78
2021/04/03 10:06:22;;;;;;;26.67;3.97;;;;;;;;;;5074055;28;20096;-79
2021/04/03 10:08:48;;;;;;;30.10;3.88;;;;;;;;;;5072542;28;20380;-78
2021/04/03 10:11:14;;;;;;;21.25;3.55;;;;;;;;;;5073608;28;20066;-78
2021/04/03 10:13:39;;;;;;;26.83;3.13;;;;;;;;;;5073688;28;20111;-78
2021/04/03 10:16:04;;;;;;;16.50;2.55;;;;;;;;;;5072252;28;20112;-78
2021/04/03 10:18:30;;;;;;;17.90;4.43;;;;;;;;;;5072394;28;20024;-78
2021/04/03 10:20:55;;;;;;;18.40;2.92;;;;;;;;;;5073837;28;20013;-78
2021/04/03 10:23:20;;;;;;;27.67;3.10;;;;;;;;;;5072426;28;20049;-78
2021/04/03 10:25:47;;;;;;;12.70;2.83;;;;;;;;;;5073396;28;20023;-78
2021/04/03 10:28:12;;;;;;;22.90;3.08;;;;;;;;;;5072615;28;20044;-78
2021/04/03 10:30:37;;;;;;;24.73;4.82;;;;;;;;;;5073264;28;20514;-78
2021/04/03 10:33:03;;;;;;;25.58;2.92;;;;;;;;;;5071504;28;20081;-78
2021/04/03 10:35:28;;;;;;;24.80;4.20;;;;;;;;;;5072790;28;20162;-78
2021/04/03 10:37:53;;;;;;;15.60;2.88;;;;;;;;;;5071221;28;20059;-79
2021/04/03 10:40:18;;;;;;;17.60;2.95;;;;;;;;;;5068996;28;20021;-78
2021/04/03 10:42:43;;;;;;;20.55;2.78;;;;;;;;;;5068373;28;20074;-78
2021/04/03 10:45:09;;;;;;;24.45;4.07;;;;;;;;;;5073371;28;20020;-78
2021/04/03 10:47:34;;;;;;;36.47;4.03;;;;;;;;;;5072910;28;20033;-78
2021/04/03 10:49:59;;;;;;;23.77;3.67;;;;;;;;;;5072991;28;20021;-78
2021/04/03 10:52:24;;;;;;;19.98;3.22;;;;;;;;;;5071631;28;20490;-78
2021/04/03 10:54:50;;;;;;;20.50;3.53;;;;;;;;;;5071175;28;20032;-78
2021/04/03 10:57:15;;;;;;;14.00;2.35;;;;;;;;;;5072505;28;20021;-78
2021/04/03 10:59:41;;;;;;;14.95;3.10;;;;;;;;;;5071154;28;20523;-78
2021/04/03 11:02:07;;;;;;;18.38;3.05;;;;;;;;;;5072133;28;20025;-78
2021/04/03 11:04:32;;;;;;;20.45;3.75;;;;;;;;;;5073321;28;20459;-78
2021/04/03 11:06:57;;;;;;;14.40;3.58;;;;;;;;;;5072989;28;20024;-78
2021/04/03 11:09:22;;;;;;;19.23;3.35;;;;;;;;;;5068850;28;20035;-79
2021/04/03 11:11:47;;;;;;;16.65;3.40;;;;;;;;;;5070805;28;20046;-78
2021/04/03 11:14:12;;;;;;;19.15;3.72;;;;;;;;;;5072339;28;20029;-78
2021/04/03 11:16:38;;;;;;;21.35;3.03;;;;;;;;;;5072777;28;20097;-78
2021/04/03 11:19:03;;;;;;;11.55;2.45;;;;;;;;;;5070339;28;20050;-78
2021/04/03 11:21:28;;;;;;;17.30;2.90;;;;;;;;;;5072055;28;20017;-78
2021/04/03 11:23:53;;;;;;;13.27;2.28;;;;;;;;;;5071735;28;20506;-79
2021/04/03 11:26:18;;;;;;;24.67;3.78;;;;;;;;;;5066538;28;20028;-78
2021/04/03 11:28:44;;;;;;;14.70;3.28;;;;;;;;;;5072071;28;20032;-78
2021/04/03 11:31:09;;;;;;;11.35;2.75;;;;;;;;;;5066403;28;20074;-78
2021/04/03 11:33:34;;;;;;;22.90;3.33;;;;;;;;;;5066297;28;20440;-78
2021/04/03 11:35:59;;;;;;;12.77;2.92;;;;;;;;;;5064356;28;20021;-78
2021/04/03 11:38:24;;;;;;;13.43;2.85;;;;;;;;;;5064707;28;20095;-78
2021/04/03 11:40:50;;;;;;;19.55;2.67;;;;;;;;;;5070165;28;20020;-78
2021/04/03 11:43:15;;;;;;;18.48;3.03;;;;;;;;;;5070024;28;20021;-78
2021/04/03 11:45:40;;;;;;;13.50;3.35;;;;;;;;;;5072040;28;20071;-78
2021/04/03 11:48:05;;;;;;;24.52;3.58;;;;;;;;;;5069333;28;20077;-78
2021/04/03 11:50:31;;;;;;;13.93;2.85;;;;;;;;;;5071418;28;20499;-78
2021/04/03 11:52:58;;;;;;;16.95;3.75;;;;;;;;;;5070708;28;20021;-79
2021/04/03 11:55:23;;;;;;;17.67;3.17;;;;;;;;;;5070568;28;20033;-78
2021/04/03 11:57:48;;;;;;;14.85;2.80;;;;;;;;;;5070629;28;20353;-78
2021/04/03 12:00:14;;;;;;;17.90;3.25;;;;;;;;;;5070846;28;20078;-78
2021/04/03 12:02:39;;;;;;;15.00;2.83;;;;;;;;;;5070864;28;20009;-78
2021/04/03 12:05:06;;;;;;;14.45;2.95;;;;;;;;;;5074212;28;20436;-78
2021/04/03 12:07:35;;;;;;;18.90;2.60;;;;;;;;;;5065293;28;20024;-78
2021/04/03 12:10:01;;;;;;;13.68;2.13;;;;;;;;;;5064163;28;20037;-78
2021/04/03 12:12:26;;;;;;;18.15;2.65;;;;;;;;;;5072194;28;20461;-78
2021/04/03 12:14:51;;;;;;;15.07;3.10;;;;;;;;;;5074599;28;20387;-78
2021/04/03 12:17:16;;;;;;;16.45;2.78;;;;;;;;;;5072667;28;20029;-77
2021/04/03 12:19:41;;;;;;;16.38;3.20;;;;;;;;;;5075325;28;20111;-78
2021/04/03 12:22:06;;;;;;;12.75;2.28;;;;;;;;;;5075288;28;20090;-78
2021/04/03 12:24:32;;;;;;;12.98;2.40;;;;;;;;;;5075795;28;20039;-78
2021/04/03 12:26:57;;;;;;;13.23;2.55;;;;;;;;;;5075103;28;20031;-78
2021/04/03 12:29:22;;;;;;;16.17;2.95;;;;;;;;;;5074579;28;20021;-78
2021/04/03 12:31:47;;;;;;;12.13;2.58;;;;;;;;;;5075260;28;20487;-78
2021/04/03 12:34:12;;;;;;;13.88;2.20;;;;;;;;;;5073005;28;20039;-78
2021/04/03 12:36:38;;;;;;;17.58;3.10;;;;;;;;;;5075764;28;20097;-78
2021/04/03 12:39:03;;;;;;;10.73;2.35;;;;;;;;;;5075919;28;20375;-77
2021/04/03 12:41:28;;;;;;;13.85;3.22;;;;;;;;;;5075175;28;20135;-78
2021/04/03 12:43:53;;;;;;;15.88;2.58;;;;;;;;;;5074398;28;20023;-78
2021/04/03 12:46:19;;;;;;;16.30;2.42;;;;;;;;;;5074747;28;20024;-78
2021/04/03 12:48:44;;;;;;;11.32;2.15;;;;;;;;;;5075498;28;20066;-78
2021/04/03 12:51:09;;;;;;;16.52;2.20;;;;;;;;;;5073801;28;20048;-77
2021/04/03 12:53:34;;;;;;;11.70;2.35;;;;;;;;;;5073315;28;20471;-78
2021/04/03 12:56:00;;;;;;;16.17;2.25;;;;;;;;;;5075339;28;20031;-78
2021/04/03 12:58:25;;;;;;;17.88;2.63;;;;;;;;;;5073923;28;20104;-78
2021/04/03 13:00:50;;;;;;;19.23;3.83;;;;;;;;;;5073594;28;20013;-78
2021/04/03 13:03:15;;;;;;;17.88;2.53;;;;;;;;;;5073785;28;20016;-78
2021/04/03 13:05:41;;;;;;;13.10;2.90;;;;;;;;;;5073885;28;20027;-77
2021/04/03 13:08:06;;;;;;;18.08;2.75;;;;;;;;;;5073848;28;20029;-78
2021/04/03 13:10:31;;;;;;;17.08;2.70;;;;;;;;;;5075171;28;20359;-78
2021/04/03 13:12:57;;;;;;;11.02;1.70;;;;;;;;;;5074872;28;20059;-78
2021/04/03 13:15:22;;;;;;;7.18;1.77;;;;;;;;;;5073783;28;20102;-78
2021/04/03 13:17:47;;;;;;;14.27;2.83;;;;;;;;;;5073162;28;20359;-78
2021/04/03 13:20:13;;;;;;;9.57;2.45;;;;;;;;;;5073576;28;20019;-78
2021/04/03 13:22:39;;;;;;;13.73;2.28;;;;;;;;;;5074924;28;20020;-78
2021/04/03 13:25:04;;;;;;;13.35;3.65;;;;;;;;;;5073624;28;20054;-78
2021/04/03 13:27:30;;;;;;;19.75;2.70;;;;;;;;;;5074749;28;20082;-78
2021/04/03 13:29:55;;;;;;;10.98;2.83;;;;;;;;;;5074063;28;20020;-77
2021/04/03 13:32:21;;;;;;;11.65;1.88;;;;;;;;;;5066964;28;20333;-77
2021/04/03 13:34:46;;;;;;;14.45;3.03;;;;;;;;;;5073434;28;20421;-78
2021/04/03 13:37:11;;;;;;;13.00;2.95;;;;;;;;;;5072075;28;20024;-78
2021/04/03 13:39:37;;;;;;;16.23;2.75;;;;;;;;;;5072828;28;20028;-78
2021/04/03 13:42:02;;;;;;;16.23;3.42;;;;;;;;;;5073174;28;20096;-78
2021/04/03 13:44:27;;;;;;;11.15;2.35;;;;;;;;;;5072303;28;20021;-77
2021/04/03 13:46:52;;;;;;;15.02;2.40;;;;;;;;;;5068712;28;20116;-77
2021/04/03 13:49:18;;;;;;;18.20;3.17;;;;;;;;;;5075503;28;20383;-78
2021/04/03 13:51:43;;;;;;;16.92;2.67;;;;;;;;;;5072768;28;20020;-78
2021/04/03 13:54:08;;;;;;;11.88;2.50;;;;;;;;;;5072229;28;20425;-78
2021/04/03 13:56:33;;;;;;;14.15;3.20;;;;;;;;;;5072685;28;20038;-78
2021/04/03 13:58:58;;;;;;;20.20;3.22;;;;;;;;;;5070904;28;20028;-78
2021/04/03 14:01:24;;;;;;;17.50;3.17;;;;;;;;;;5072942;28;20028;-78
2021/04/03 14:03:49;;;;;;;8.13;1.88;;;;;;;;;;5072312;28;20016;-78
2021/04/03 14:06:14;;;;;;;6.13;1.63;;;;;;;;;;5072516;28;20115;-78
2021/04/03 14:08:40;;;;;;;16.58;2.80;;;;;;;;;;5072372;28;20028;-78
2021/04/03 14:11:06;;;;;;;8.70;2.15;;;;;;;;;;5073983;28;20025;-78
2021/04/03 14:13:31;;;;;;;15.68;2.45;;;;;;;;;;5073270;28;20024;-78
2021/04/03 14:15:58;;;;;;;10.85;2.42;;;;;;;;;;5073294;28;20043;-78
2021/04/03 14:18:23;;;;;;;15.52;2.95;;;;;;;;;;5073871;28;20025;-78
2021/04/03 14:20:48;;;;;;;22.02;2.70;;;;;;;;;;5073245;28;20427;-78
2021/04/03 14:23:13;;;;;;;24.33;2.90;;;;;;;;;;5072001;28;20020;-78
2021/04/03 14:25:38;;;;;;;16.90;3.13;;;;;;;;;;5072196;28;20414;-78